Time,TemperatureF,DewpointF,PressureIn,WindDirection,WindDirectionDegrees,WindSpeedMPH,WindSpeedGustMPH,Humidity,HourlyPrecipIn,Conditions,Clouds,dailyrainin,SolarRadiationWatts/m^2,SoftwareType,DateUTC
2013-03-25 00:12:00,67.0,-29.0,-100.00,SE,125,6.0,32.0,0,0.00,,,0.00,0.000000,,2013-03-25 10:12:00,
2013-03-25 00:22:00,67.0,-29.0,-100.00,SE,125,6.0,32.0,0,0.00,,,0.00,0.000000,,2013-03-25 10:22:00,
2013-03-25 00:32:00,67.0,-29.0,-100.00,SE,125,6.0,32.0,0,0.00,,,0.00,0.000000,,2013-03-25 10:32:00,
2013-03-25 00:42:00,67.0,-29.0,-100.00,SE,125,6.0,32.0,0,0.00,,,0.00,0.000000,,2013-03-25 10:42:00,
2013-03-25 01:12:00,66.0,-29.0,-100.00,SE,133,5.0,35.0,0,0.00,,,0.00,0.000000,,2013-03-25 11:12:00,
2013-03-25 01:23:00,66.0,-29.0,-100.00,SE,133,5.0,35.0,0,0.00,,,0.00,0.000000,,2013-03-25 11:23:00,
2013-03-25 01:32:00,66.0,-29.0,-100.00,SE,133,5.0,35.0,0,0.00,,,0.00,0.000000,,2013-03-25 11:32:00,
2013-03-25 01:42:00,66.0,-29.0,-100.00,SE,133,5.0,35.0,0,0.00,,,0.00,0.000000,,2013-03-25 11:42:00,
2013-03-25 01:51:00,66.0,-29.0,-100.00,SE,133,5.0,35.0,0,0.00,,,0.00,0.000000,,2013-03-25 11:51:00,
2013-03-25 01:52:00,66.0,-29.0,-100.00,East,100,6.0,32.0,0,0.00,,,0.00,0.000000,,2013-03-25 11:52:00,
2013-03-25 02:12:00,66.0,-29.0,-100.00,East,100,6.0,32.0,0,0.00,,,0.00,0.000000,,2013-03-25 12:12:00,
2013-03-25 02:23:00,66.0,-29.0,-100.00,East,100,6.0,32.0,0,0.00,,,0.00,0.000000,,2013-03-25 12:23:00,
2013-03-25 02:32:00,66.0,-29.0,-100.00,East,100,6.0,32.0,0,0.00,,,0.00,0.000000,,2013-03-25 12:32:00,
2013-03-25 02:42:00,66.0,-29.0,-100.00,East,100,6.0,32.0,0,0.00,,,0.00,0.000000,,2013-03-25 12:42:00,
2013-03-25 02:52:00,66.0,-29.0,-100.00,SSW,209,6.0,15.0,0,0.00,,,0.00,0.000000,,2013-03-25 12:52:00,
2013-03-25 03:12:00,66.0,-29.0,-100.00,SSW,209,6.0,15.0,0,0.00,,,0.00,0.000000,,2013-03-25 13:12:00,
2013-03-25 03:22:00,66.0,-29.0,-100.00,SSW,209,6.0,15.0,0,0.00,,,0.00,0.000000,,2013-03-25 13:22:00,
2013-03-25 03:32:00,66.0,-29.0,-100.00,SSW,209,6.0,15.0,0,0.00,,,0.00,0.000000,,2013-03-25 13:32:00,
2013-03-25 03:42:00,66.0,-29.0,-100.00,SSW,209,6.0,15.0,0,0.00,,,0.00,0.000000,,2013-03-25 13:42:00,
2013-03-25 03:52:00,65.0,-30.0,-100.00,ESE,121,5.0,28.0,0,0.00,,,0.00,0.000000,,2013-03-25 13:52:00,
2013-03-25 04:12:00,65.0,-30.0,-100.00,ESE,121,5.0,28.0,0,0.00,,,0.00,0.000000,,2013-03-25 14:12:00,
2013-03-25 04:22:00,65.0,-30.0,-100.00,ESE,121,5.0,28.0,0,0.00,,,0.00,0.000000,,2013-03-25 14:22:00,
2013-03-25 04:32:00,65.0,-30.0,-100.00,ESE,121,5.0,28.0,0,0.00,,,0.00,0.000000,,2013-03-25 14:32:00,
2013-03-25 04:42:00,65.0,-30.0,-100.00,ESE,121,5.0,28.0,0,0.00,,,0.00,0.000000,,2013-03-25 14:42:00,
2013-03-25 04:52:00,68.0,-28.0,-100.00,ESE,120,12.0,35.0,0,0.00,,,0.00,0.000000,,2013-03-25 14:52:00,
2013-03-25 05:22:00,68.0,-28.0,-100.00,ESE,120,12.0,35.0,0,0.00,,,0.00,0.000000,,2013-03-25 15:22:00,
2013-03-25 05:32:00,68.0,-28.0,-100.00,ESE,120,12.0,35.0,0,0.00,,,0.00,0.000000,,2013-03-25 15:32:00,
2013-03-25 05:42:00,68.0,-28.0,-100.00,ESE,120,12.0,35.0,0,0.00,,,0.00,0.000000,,2013-03-25 15:42:00,
2013-03-25 05:52:00,66.0,-29.0,-100.00,SE,124,11.0,35.0,0,0.00,,,0.00,0.000000,,2013-03-25 15:52:00,
2013-03-25 06:23:00,66.0,-29.0,-100.00,SE,124,11.0,35.0,0,0.00,,,0.00,0.000000,,2013-03-25 16:23:00,
2013-03-25 06:32:00,66.0,-29.0,-100.00,SE,124,11.0,35.0,0,0.00,,,0.00,0.000000,,2013-03-25 16:32:00,
2013-03-25 06:42:00,66.0,-29.0,-100.00,SE,124,11.0,35.0,0,0.00,,,0.00,0.000000,,2013-03-25 16:42:00,
2013-03-25 07:12:00,65.0,-30.0,-100.00,SSE,157,16.0,38.0,0,0.00,,,0.00,0.000000,,2013-03-25 17:12:00,
2013-03-25 07:23:00,65.0,-30.0,-100.00,SSE,157,16.0,38.0,0,0.00,,,0.00,0.000000,,2013-03-25 17:23:00,
2013-03-25 07:32:00,65.0,-30.0,-100.00,SSE,157,16.0,38.0,0,0.00,,,0.00,0.000000,,2013-03-25 17:32:00,
2013-03-25 07:42:00,65.0,-30.0,-100.00,SSE,157,16.0,38.0,0,0.00,,,0.00,0.000000,,2013-03-25 17:42:00,
2013-03-25 07:51:00,65.0,-30.0,-100.00,SSE,157,16.0,38.0,0,0.00,,,0.00,0.000000,,2013-03-25 17:51:00,
2013-03-25 08:12:00,69.0,-28.0,-100.00,ESE,120,14.0,49.0,0,0.00,,,0.00,14.000000,,2013-03-25 18:12:00,
2013-03-25 08:22:00,69.0,-28.0,-100.00,ESE,120,14.0,49.0,0,0.00,,,0.00,14.000000,,2013-03-25 18:22:00,
2013-03-25 08:32:00,69.0,-28.0,-100.00,ESE,120,14.0,49.0,0,0.00,,,0.00,14.000000,,2013-03-25 18:32:00,
2013-03-25 08:42:00,69.0,-28.0,-100.00,ESE,120,14.0,49.0,0,0.00,,,0.00,14.000000,,2013-03-25 18:42:00,
2013-03-25 08:51:00,69.0,-28.0,-100.00,ESE,120,14.0,49.0,0,0.00,,,0.00,14.000000,,2013-03-25 18:51:00,
2013-03-25 08:52:00,72.0,-26.0,-100.00,SSE,162,16.0,33.0,0,0.00,,,0.00,212.000000,,2013-03-25 18:52:00,
2013-03-25 09:12:00,72.0,-26.0,-100.00,SSE,162,16.0,33.0,0,0.00,,,0.00,212.000000,,2013-03-25 19:12:00,
2013-03-25 09:22:00,72.0,-26.0,-100.00,SSE,162,16.0,33.0,0,0.00,,,0.00,212.000000,,2013-03-25 19:22:00,
2013-03-25 09:32:00,72.0,-26.0,-100.00,SSE,162,16.0,33.0,0,0.00,,,0.00,212.000000,,2013-03-25 19:32:00,
2013-03-25 09:42:00,72.0,-26.0,-100.00,SSE,162,16.0,33.0,0,0.00,,,0.00,212.000000,,2013-03-25 19:42:00,
2013-03-25 10:12:00,75.0,-24.0,-100.00,ENE,58,10.0,27.0,0,0.00,,,0.00,526.000000,,2013-03-25 20:12:00,
2013-03-25 10:22:00,75.0,-24.0,-100.00,ENE,58,10.0,27.0,0,0.00,,,0.00,526.000000,,2013-03-25 20:22:00,
2013-03-25 10:32:00,75.0,-24.0,-100.00,ENE,58,10.0,27.0,0,0.00,,,0.00,526.000000,,2013-03-25 20:32:00,
2013-03-25 10:42:00,75.0,-24.0,-100.00,ENE,58,10.0,27.0,0,0.00,,,0.00,526.000000,,2013-03-25 20:42:00,
2013-03-25 10:51:00,75.0,-24.0,-100.00,ENE,58,10.0,27.0,0,0.00,,,0.00,526.000000,,2013-03-25 20:51:00,
2013-03-25 10:52:00,77.0,-23.0,-100.00,East,96,12.0,20.0,0,0.00,,,0.00,754.000000,,2013-03-25 20:52:00,
2013-03-25 11:22:00,77.0,-23.0,-100.00,East,96,12.0,20.0,0,0.00,,,0.00,754.000000,,2013-03-25 21:22:00,
2013-03-25 11:32:00,77.0,-23.0,-100.00,East,96,12.0,20.0,0,0.00,,,0.00,754.000000,,2013-03-25 21:32:00,
2013-03-25 11:42:00,77.0,-23.0,-100.00,East,96,12.0,20.0,0,0.00,,,0.00,754.000000,,2013-03-25 21:42:00,
2013-03-25 11:52:00,75.0,-24.0,-100.00,SE,143,15.0,21.0,0,0.00,,,0.00,1009.000000,,2013-03-25 21:52:00,
2013-03-25 12:23:00,75.0,-24.0,-100.00,SE,143,15.0,21.0,0,0.00,,,0.00,1009.000000,,2013-03-25 22:23:00,
2013-03-25 12:32:00,75.0,-24.0,-100.00,SE,143,15.0,21.0,0,0.00,,,0.00,1009.000000,,2013-03-25 22:32:00,
2013-03-25 12:42:00,75.0,-24.0,-100.00,SE,143,15.0,21.0,0,0.00,,,0.00,1009.000000,,2013-03-25 22:42:00,
2013-03-25 12:52:00,75.0,-24.0,-100.00,SE,145,16.0,24.0,0,0.00,,,0.00,1021.000000,,2013-03-25 22:52:00,
2013-03-25 13:12:00,75.0,-24.0,-100.00,SE,145,16.0,24.0,0,0.00,,,0.00,1021.000000,,2013-03-25 23:12:00,
2013-03-25 13:22:00,75.0,-24.0,-100.00,SE,145,16.0,24.0,0,0.00,,,0.00,1021.000000,,2013-03-25 23:22:00,
2013-03-25 13:32:00,75.0,-24.0,-100.00,SE,145,16.0,24.0,0,0.00,,,0.00,1021.000000,,2013-03-25 23:32:00,
2013-03-25 13:42:00,75.0,-24.0,-100.00,SE,145,16.0,24.0,0,0.00,,,0.00,1021.000000,,2013-03-25 23:42:00,
2013-03-25 13:52:00,74.0,-25.0,-100.00,SSE,158,18.0,27.0,0,0.00,,,0.00,977.000000,,2013-03-25 23:52:00,
2013-03-25 14:12:00,74.0,-25.0,-100.00,SSE,158,18.0,27.0,0,0.00,,,0.00,977.000000,,2013-03-26 00:12:00,
2013-03-25 14:22:00,74.0,-25.0,-100.00,SSE,158,18.0,27.0,0,0.00,,,0.00,977.000000,,2013-03-26 00:22:00,
2013-03-25 14:32:00,74.0,-25.0,-100.00,SSE,158,18.0,27.0,0,0.00,,,0.00,977.000000,,2013-03-26 00:32:00,
2013-03-25 14:42:00,74.0,-25.0,-100.00,SSE,158,18.0,27.0,0,0.00,,,0.00,977.000000,,2013-03-26 00:42:00,
2013-03-25 14:52:00,74.0,-25.0,-100.00,SSE,159,19.0,28.0,0,0.00,,,0.00,1137.000000,,2013-03-26 00:52:00,
2013-03-25 15:12:00,74.0,-25.0,-100.00,SSE,159,19.0,28.0,0,0.00,,,0.00,1137.000000,,2013-03-26 01:12:00,
2013-03-25 15:22:00,74.0,-25.0,-100.00,SSE,159,19.0,28.0,0,0.00,,,0.00,1137.000000,,2013-03-26 01:22:00,
2013-03-25 15:32:00,74.0,-25.0,-100.00,SSE,159,19.0,28.0,0,0.00,,,0.00,1137.000000,,2013-03-26 01:32:00,
2013-03-25 15:42:00,74.0,-25.0,-100.00,SSE,159,19.0,28.0,0,0.00,,,0.00,1137.000000,,2013-03-26 01:42:00,
2013-03-25 15:52:00,75.0,-24.0,-100.00,SSE,151,17.0,30.0,0,0.00,,,0.00,989.000000,,2013-03-26 01:52:00,
2013-03-25 16:22:00,75.0,-24.0,-100.00,SSE,151,17.0,30.0,0,0.00,,,0.00,989.000000,,2013-03-26 02:22:00,
2013-03-25 16:32:00,75.0,-24.0,-100.00,SSE,151,17.0,30.0,0,0.00,,,0.00,989.000000,,2013-03-26 02:32:00,
2013-03-25 16:42:00,75.0,-24.0,-100.00,SSE,151,17.0,30.0,0,0.00,,,0.00,989.000000,,2013-03-26 02:42:00,
2013-03-25 16:52:00,75.0,-24.0,-100.00,SE,146,15.0,27.0,0,0.00,,,0.00,792.000000,,2013-03-26 02:52:00,
2013-03-25 17:12:00,75.0,-24.0,-100.00,SE,146,15.0,27.0,0,0.00,,,0.00,792.000000,,2013-03-26 03:12:00,
2013-03-25 17:22:00,75.0,-24.0,-100.00,SE,146,15.0,27.0,0,0.00,,,0.00,792.000000,,2013-03-26 03:22:00,
2013-03-25 17:33:00,75.0,-24.0,-100.00,SE,146,15.0,27.0,0,0.00,,,0.00,792.000000,,2013-03-26 03:33:00,
2013-03-25 17:42:00,75.0,-24.0,-100.00,SE,146,15.0,27.0,0,0.00,,,0.00,792.000000,,2013-03-26 03:42:00,
2013-03-25 17:52:00,76.0,-23.0,-100.00,NE,34,13.0,23.0,0,0.00,,,0.00,446.000000,,2013-03-26 03:52:00,
2013-03-25 18:12:00,76.0,-23.0,-100.00,NE,34,13.0,23.0,0,0.00,,,0.00,446.000000,,2013-03-26 04:12:00,
2013-03-25 18:23:00,76.0,-23.0,-100.00,NE,34,13.0,23.0,0,0.00,,,0.00,446.000000,,2013-03-26 04:23:00,
2013-03-25 18:32:00,76.0,-23.0,-100.00,NE,34,13.0,23.0,0,0.00,,,0.00,446.000000,,2013-03-26 04:32:00,
2013-03-25 18:42:00,76.0,-23.0,-100.00,NE,34,13.0,23.0,0,0.00,,,0.00,446.000000,,2013-03-26 04:42:00,
2013-03-25 18:52:00,73.0,-25.0,-100.00,SE,144,7.0,20.0,0,0.00,,,0.00,184.000000,,2013-03-26 04:52:00,
2013-03-25 19:12:00,73.0,-25.0,-100.00,SE,144,7.0,20.0,0,0.00,,,0.00,184.000000,,2013-03-26 05:12:00,
2013-03-25 19:22:00,73.0,-25.0,-100.00,SE,144,7.0,20.0,0,0.00,,,0.00,184.000000,,2013-03-26 05:22:00,
2013-03-25 19:32:00,73.0,-25.0,-100.00,SE,144,7.0,20.0,0,0.00,,,0.00,184.000000,,2013-03-26 05:32:00,
2013-03-25 19:42:00,73.0,-25.0,-100.00,SE,144,7.0,20.0,0,0.00,,,0.00,184.000000,,2013-03-26 05:42:00,
2013-03-25 19:52:00,69.0,-28.0,-100.00,SE,127,10.0,18.0,0,0.00,,,0.00,20.000000,,2013-03-26 05:52:00,
2013-03-25 20:12:00,69.0,-28.0,-100.00,SE,127,10.0,18.0,0,0.00,,,0.00,20.000000,,2013-03-26 06:12:00,
2013-03-25 20:22:00,69.0,-28.0,-100.00,SE,127,10.0,18.0,0,0.00,,,0.00,20.000000,,2013-03-26 06:22:00,
2013-03-25 20:32:00,69.0,-28.0,-100.00,SE,127,10.0,18.0,0,0.00,,,0.00,20.000000,,2013-03-26 06:32:00,
2013-03-25 20:42:00,69.0,-28.0,-100.00,SE,127,10.0,18.0,0,0.00,,,0.00,20.000000,,2013-03-26 06:42:00,
2013-03-25 20:52:00,70.0,-27.0,-100.00,East,94,8.0,16.0,0,0.00,,,0.00,0.000000,,2013-03-26 06:52:00,
2013-03-25 21:22:00,70.0,-27.0,-100.00,East,94,8.0,16.0,0,0.00,,,0.00,0.000000,,2013-03-26 07:22:00,
2013-03-25 21:32:00,70.0,-27.0,-100.00,East,94,8.0,16.0,0,0.00,,,0.00,0.000000,,2013-03-26 07:32:00,
2013-03-25 21:42:00,70.0,-27.0,-100.00,East,94,8.0,16.0,0,0.00,,,0.00,0.000000,,2013-03-26 07:42:00,
2013-03-25 22:12:00,70.0,-27.0,-100.00,SE,146,7.0,18.0,0,0.00,,,0.00,0.000000,,2013-03-26 08:12:00,
2013-03-25 22:22:00,70.0,-27.0,-100.00,SE,146,7.0,18.0,0,0.00,,,0.00,0.000000,,2013-03-26 08:22:00,
2013-03-25 22:32:00,70.0,-27.0,-100.00,SE,146,7.0,18.0,0,0.00,,,0.00,0.000000,,2013-03-26 08:32:00,
2013-03-25 22:42:00,70.0,-27.0,-100.00,SE,146,7.0,18.0,0,0.00,,,0.00,0.000000,,2013-03-26 08:42:00,
2013-03-25 22:51:00,70.0,-27.0,-100.00,SE,146,7.0,18.0,0,0.00,,,0.00,0.000000,,2013-03-26 08:51:00,
2013-03-25 22:52:00,69.0,-28.0,-100.00,WNW,302,8.0,17.0,0,0.00,,,0.00,0.000000,,2013-03-26 08:52:00,
2013-03-25 23:22:00,69.0,-28.0,-100.00,WNW,302,8.0,17.0,0,0.00,,,0.00,0.000000,,2013-03-26 09:22:00,
2013-03-25 23:32:00,69.0,-28.0,-100.00,WNW,302,8.0,17.0,0,0.00,,,0.00,0.000000,,2013-03-26 09:32:00,
2013-03-25 23:42:00,69.0,-28.0,-100.00,WNW,302,8.0,17.0,0,0.00,,,0.00,0.000000,,2013-03-26 09:42:00,
2013-03-25 23:52:00,67.0,-29.0,-100.00,ESE,107,10.0,34.0,0,0.00,,,0.00,0.000000,,2013-03-26 09:52:00,